Time;durP1;ratioP1;P1;durP2;ratioP2;P2;SDS_P1;SDS_P2;PMS_P1;PMS_P2;Temp;Humidity;BMP_temperature;BMP_pressure;BME280_temperature;BME280_humidity;BME280_pressure;Samples;Min_cycle;Max_cycle;Signal;HPM_P1;HPM_P2
2022/11/16 00:00:59;;;;;;;8.35;5.05;;;;;;;7.81;100.00;96540.03;6273714;22;20008;-83
2022/11/16 00:03:24;;;;;;;11.45;5.68;;;;;;;7.71;100.00;96547.72;6274353;22;20007;-81
2022/11/16 00:05:55;;;;;;;9.48;4.88;;;;;;;7.68;100.00;96546.38;6247901;22;20011;-82
2022/11/16 00:08:21;;;;;;;12.55;5.53;;;;;;;7.62;100.00;96547.31;6276368;22;20012;-82
2022/11/16 00:10:46;;;;;;;15.02;6.30;;;;;;;7.57;100.00;96549.84;6275721;22;20091;-82
2022/11/16 00:13:12;;;;;;;10.98;6.18;;;;;;;7.51;100.00;96550.78;6248780;22;20021;-82
2022/11/16 00:15:38;;;;;;;9.90;6.18;;;;;;;7.43;100.00;96537.09;6249167;22;20007;-81
2022/11/16 00:18:03;;;;;;;10.05;5.60;;;;;;;7.38;100.00;96538.84;6275730;22;20043;-83
2022/11/16 00:20:29;;;;;;;14.40;6.40;;;;;;;7.31;100.00;96543.41;6249200;22;20102;-82
2022/11/16 00:22:54;;;;;;;9.32;5.78;;;;;;;7.26;100.00;96544.88;6275835;22;20011;-82
2022/11/16 00:25:20;;;;;;;12.32;6.32;;;;;;;7.20;100.00;96545.06;6249144;22;20066;-81
2022/11/16 00:27:45;;;;;;;15.88;6.68;;;;;;;7.14;100.00;96552.00;6275620;22;20012;-82
2022/11/16 00:30:12;;;;;;;11.52;5.72;;;;;;;7.10;100.00;96550.88;6274307;22;20011;-82
2022/11/16 00:32:37;;;;;;;13.10;6.70;;;;;;;7.07;100.00;96561.75;6275913;22;20382;-82
2022/11/16 00:35:03;;;;;;;20.75;8.35;;;;;;;7.04;100.00;96563.03;6248940;22;20366;-82
2022/11/16 00:37:29;;;;;;;14.13;7.82;;;;;;;7.11;100.00;96573.34;6248472;22;20012;-82
2022/11/16 00:39:55;;;;;;;17.50;8.15;;;;;;;7.17;100.00;96572.41;6248817;22;20012;-81
2022/11/16 00:42:20;;;;;;;17.75;8.75;;;;;;;7.38;100.00;96577.97;6275014;22;20092;-81
2022/11/16 00:44:46;;;;;;;17.85;9.18;;;;;;;7.48;100.00;96570.34;6248357;22;20383;-82
2022/11/16 00:47:11;;;;;;;17.63;9.77;;;;;;;7.62;100.00;96562.19;6249232;22;20386;-82
2022/11/16 00:49:37;;;;;;;20.40;9.68;;;;;;;7.79;100.00;96562.22;6275494;22;20110;-82
2022/11/16 00:52:02;;;;;;;20.92;11.73;;;;;;;7.85;100.00;96569.84;6275941;22;20384;-81
2022/11/16 00:54:28;;;;;;;22.95;12.48;;;;;;;7.93;100.00;96563.44;6275793;22;20058;-82
2022/11/16 00:56:53;;;;;;;24.92;12.77;;;;;;;8.06;100.00;96562.34;6275473;22;20369;-82
2022/11/16 00:59:19;;;;;;;21.38;13.20;;;;;;;8.20;100.00;96557.56;6276126;22;20042;-82
2022/11/16 01:01:44;;;;;;;27.23;14.13;;;;;;;8.28;100.00;96559.00;6275308;22;20430;-82
2022/11/16 01:04:10;;;;;;;26.45;12.50;;;;;;;8.39;100.00;96559.91;6275657;22;20020;-81
2022/11/16 01:06:36;;;;;;;24.67;13.45;;;;;;;8.43;100.00;96558.41;6275858;22;20492;-82
2022/11/16 01:09:01;;;;;;;26.58;13.02;;;;;;;8.46;100.00;96564.97;6275536;22;20012;-82
2022/11/16 01:14:11;;;;;;;23.35;12.77;;;;;;;8.52;100.00;96554.34;6275762;22;20014;-82
2022/11/16 01:16:37;;;;;;;36.03;14.52;;;;;;;8.51;100.00;96562.44;6275604;22;20004;-83
2022/11/16 01:19:04;;;;;;;25.88;14.07;;;;;;;8.46;100.00;96552.69;6248491;22;20012;-81
2022/11/16 01:21:30;;;;;;;29.27;14.80;;;;;;;8.59;100.00;96559.41;6275667;22;20088;-82
2022/11/16 01:23:56;;;;;;;24.77;14.15;;;;;;;8.69;100.00;96571.81;6275244;22;20401;-84
2022/11/16 01:26:22;;;;;;;32.38;14.43;;;;;;;8.74;100.00;96566.63;6275114;22;20012;-83
2022/11/16 01:28:48;;;;;;;26.00;15.13;;;;;;;8.50;100.00;96569.50;6248281;22;20016;-82
2022/11/16 01:31:13;;;;;;;24.05;14.05;;;;;;;8.58;100.00;96568.28;6275567;22;20007;-82
2022/11/16 01:33:39;;;;;;;26.02;15.15;;;;;;;8.55;100.00;96563.53;6247893;22;20008;-82
2022/11/16 01:36:13;;;;;;;28.48;14.13;;;;;;;8.64;100.00;96563.91;6274964;22;20007;-82
2022/11/16 01:38:41;;;;;;;23.67;13.25;;;;;;;8.71;100.00;96557.47;6247885;22;20472;-81
2022/11/16 01:41:07;;;;;;;21.35;13.02;;;;;;;8.50;100.00;96558.25;6274555;22;20528;-83
2022/11/16 01:43:51;;;;;;;21.92;13.45;;;;;;;8.62;100.00;96563.38;6275054;22;20018;-82
2022/11/16 01:46:17;;;;;;;26.70;13.93;;;;;;;8.67;100.00;96556.38;6248080;22;20007;-82
2022/11/16 01:48:45;;;;;;;26.88;13.27;;;;;;;8.55;100.00;96550.47;6275208;22;20021;-82
2022/11/16 01:51:11;;;;;;;20.98;13.45;;;;;;;8.59;100.00;96556.00;6274903;22;20011;-82
2022/11/16 01:53:36;;;;;;;23.58;13.23;;;;;;;8.54;100.00;96551.50;6247866;22;20058;-81
2022/11/16 01:56:03;;;;;;;23.63;11.90;;;;;;;8.65;100.00;96548.00;6274521;22;20010;-81
2022/11/16 01:58:30;;;;;;;17.38;11.55;;;;;;;8.61;100.00;96551.31;6247733;22;20377;-82
2022/11/16 02:00:56;;;;;;;19.33;11.80;;;;;;;8.65;100.00;96548.00;6275101;22;20109;-81
2022/11/16 02:03:22;;;;;;;20.27;10.88;;;;;;;8.77;100.00;96554.91;6275238;22;20015;-81
2022/11/16 02:06:15;;;;;;;22.52;12.38;;;;;;;8.79;100.00;96550.22;6274848;22;20014;-81
2022/11/16 02:12:42;;;;;;;17.17;10.80;;;;;;;8.76;100.00;96553.31;6274950;22;20304;-81
2022/11/16 02:15:26;;;;;;;15.50;10.80;;;;;;;8.80;100.00;96567.50;6274896;22;20008;-81
2022/11/16 02:18:33;;;;;;;16.75;10.55;;;;;;;8.92;100.00;96562.13;6274369;22;20011;-82
2022/11/16 02:21:05;;;;;;;18.38;10.32;;;;;;;8.80;100.00;96555.22;6126774;23;20021;-82
2022/11/16 02:24:00;;;;;;;18.45;11.13;;;;;;;8.76;100.00;96561.16;6151134;23;20021;-81
2022/11/16 02:27:13;;;;;;;18.27;10.93;;;;;;;8.43;100.00;96543.47;6211143;22;20034;-81
2022/11/16 02:29:43;;;;;;;15.32;9.38;;;;;;;8.55;100.00;96551.28;6274192;22;20011;-81
2022/11/16 02:32:21;;;;;;;15.07;9.60;;;;;;;8.66;100.00;96556.59;6247399;22;20022;-82
2022/11/16 02:34:54;;;;;;;16.25;9.68;;;;;;;8.71;100.00;96556.66;6274509;22;20008;-82
2022/11/16 02:37:23;;;;;;;16.33;10.40;;;;;;;8.60;100.00;96542.69;6247296;22;20102;-81
2022/11/16 02:39:54;;;;;;;13.60;9.55;;;;;;;8.44;100.00;96552.91;6274210;22;20015;-82
2022/11/16 02:42:33;;;;;;;16.85;9.55;;;;;;;8.41;100.00;96547.41;6274658;22;20008;-81
2022/11/16 02:45:01;;;;;;;17.88;10.13;;;;;;;8.37;100.00;96546.31;6274776;22;20372;-82
2022/11/16 02:47:32;;;;;;;13.07;8.98;;;;;;;8.32;100.00;96546.22;6247131;22;20011;-81
2022/11/16 02:50:09;;;;;;;13.00;9.70;;;;;;;8.23;100.00;96538.00;6274571;22;20011;-82
2022/11/16 02:52:36;;;;;;;15.70;9.38;;;;;;;8.27;100.00;96541.72;6274675;22;20364;-81
2022/11/16 02:55:01;;;;;;;17.73;9.98;;;;;;;8.29;100.00;96537.81;6274316;22;20426;-82
2022/11/16 02:57:30;;;;;;;18.65;9.70;;;;;;;8.35;100.00;96549.16;6274776;22;20424;-82
2022/11/16 02:59:58;;;;;;;13.30;9.15;;;;;;;8.26;100.00;96548.75;6274515;22;20097;-82
2022/11/16 03:02:38;;;;;;;12.95;9.07;;;;;;;8.45;100.00;96548.47;6274414;22;20092;-81
2022/11/16 03:05:10;;;;;;;18.02;10.27;;;;;;;8.51;100.00;96546.75;6274212;22;20393;-81
2022/11/16 03:07:42;;;;;;;17.08;9.32;;;;;;;8.60;100.00;96549.75;6247285;22;20018;-82
2022/11/16 03:10:10;;;;;;;18.23;10.43;;;;;;;8.67;100.00;96543.31;6222099;22;20047;-84
2022/11/16 03:12:39;;;;;;;16.10;9.65;;;;;;;8.56;100.00;96554.66;6274204;22;20278;-82
2022/11/16 03:15:10;;;;;;;15.07;10.00;;;;;;;8.63;100.00;96555.25;6247241;22;20050;-83
2022/11/16 03:17:44;;;;;;;17.88;10.18;;;;;;;8.72;100.00;96555.63;6274264;22;20011;-82
2022/11/16 03:20:25;;;;;;;21.08;10.43;;;;;;;8.71;100.00;96560.09;6274204;22;20042;-83
2022/11/16 03:22:58;;;;;;;15.35;9.23;;;;;;;8.44;100.00;96563.38;6274024;22;20011;-82
2022/11/16 03:25:31;;;;;;;16.73;9.77;;;;;;;8.61;100.00;96559.16;6246977;22;20061;-80
2022/11/16 03:28:23;;;;;;;17.85;9.35;;;;;;;8.61;100.00;96552.09;6274401;22;20007;-82
2022/11/16 03:30:53;;;;;;;16.13;9.40;;;;;;;8.64;100.00;96545.59;6246383;22;20438;-83
2022/11/16 03:33:45;;;;;;;20.98;10.63;;;;;;;8.64;100.00;96546.38;6222126;22;20016;-82
2022/11/16 03:36:42;;;;;;;18.25;8.70;;;;;;;8.45;100.00;96553.72;6267686;22;20010;-82
2022/11/16 03:39:15;;;;;;;20.60;8.90;;;;;;;8.48;100.00;96557.69;6216867;22;20319;-82
2022/11/16 03:41:43;;;;;;;15.38;9.02;;;;;;;8.44;100.00;96558.13;6248285;22;20012;-82
2022/11/16 03:44:12;;;;;;;13.27;8.25;;;;;;;8.50;100.00;96553.81;6276573;22;20008;-81
2022/11/16 03:46:41;;;;;;;16.42;8.07;;;;;;;8.57;100.00;96564.09;6276435;22;20320;-82
2022/11/16 03:49:06;;;;;;;15.35;8.43;;;;;;;8.56;100.00;96563.31;6276103;22;20042;-83
2022/11/16 03:51:32;;;;;;;13.88;8.10;;;;;;;8.60;100.00;96571.44;6249013;22;20019;-82
2022/11/16 03:53:57;;;;;;;13.02;8.05;;;;;;;8.55;100.00;96566.16;6248589;22;20022;-82
2022/11/16 03:56:23;;;;;;;11.45;7.88;;;;;;;8.61;100.00;96562.56;6276351;22;20075;-82
2022/11/16 03:58:49;;;;;;;12.60;7.10;;;;;;;8.61;100.00;96565.19;6276632;22;20054;-81
2022/11/16 04:01:15;;;;;;;14.77;8.35;;;;;;;8.50;100.00;96561.66;6275807;22;20012;-81
2022/11/16 04:03:40;;;;;;;14.10;8.27;;;;;;;8.39;100.00;96571.16;6276299;22;20091;-81
2022/11/16 04:25:52;;;;;;;16.00;6.68;;;;;;;8.71;100.00;96556.66;6275720;22;20043;-81
2022/11/16 04:28:28;;;;;;;13.45;6.57;;;;;;;8.74;100.00;96555.41;6276172;22;20034;-81
2022/11/16 04:39:13;;;;;;;9.20;5.38;;;;;;;8.89;100.00;96568.66;6275554;22;20018;-82
2022/11/16 04:44:22;;;;;;;9.40;5.20;;;;;;;8.86;100.00;96553.44;6275750;22;20055;-80
2022/11/16 04:47:06;;;;;;;10.95;4.90;;;;;;;8.90;100.00;96549.31;6276195;22;20008;-81
2022/11/16 04:49:32;;;;;;;15.20;4.80;;;;;;;8.87;100.00;96549.81;6275257;22;20008;-82
2022/11/16 04:51:58;;;;;;;16.88;4.43;;;;;;;8.88;100.00;96545.34;6275443;22;20012;-82
2022/11/16 04:54:24;;;;;;;9.95;4.18;;;;;;;8.87;100.00;96549.81;6275707;22;20521;-82
2022/11/16 04:56:49;;;;;;;10.90;4.70;;;;;;;8.85;100.00;96551.88;6275188;22;20008;-81
2022/11/16 04:59:15;;;;;;;9.85;4.93;;;;;;;8.87;100.00;96555.03;6275874;22;20051;-82
2022/11/16 05:04:25;;;;;;;10.05;5.80;;;;;;;8.76;100.00;96540.25;6275157;22;20015;-82
2022/11/16 05:06:50;;;;;;;11.93;5.82;;;;;;;8.81;100.00;96545.53;6275567;22;20317;-82
2022/11/16 05:09:16;;;;;;;17.65;6.50;;;;;;;8.80;100.00;96541.34;6248642;22;20021;-82
2022/11/16 05:11:41;;;;;;;19.13;7.20;;;;;;;8.72;100.00;96547.78;6275980;22;20753;-82
2022/11/16 05:14:08;;;;;;;15.27;6.75;;;;;;;8.83;100.00;96546.06;6275314;22;20012;-82
2022/11/16 05:16:34;;;;;;;13.05;6.20;;;;;;;8.85;100.00;96541.41;6248392;22;20003;-82
2022/11/16 05:21:43;;;;;;;17.67;8.20;;;;;;;8.76;100.00;96548.09;6275528;22;20007;-82
2022/11/16 05:26:53;;;;;;;13.70;6.57;;;;;;;8.63;100.00;96544.81;6274978;22;20320;-82
2022/11/16 05:29:19;;;;;;;18.60;6.78;;;;;;;8.65;100.00;96547.19;6275425;22;20014;-83
2022/11/16 05:31:44;;;;;;;13.60;6.63;;;;;;;8.66;100.00;96538.31;6275019;22;20008;-82
2022/11/16 05:34:10;;;;;;;14.20;7.43;;;;;;;8.62;100.00;96538.00;6275068;22;20453;-80
2022/11/16 05:36:35;;;;;;;13.75;6.47;;;;;;;8.66;100.00;96538.31;6247979;22;20012;-83
2022/11/16 05:39:01;;;;;;;12.65;7.35;;;;;;;8.57;100.00;96535.31;6275288;22;20014;-81
2022/11/16 05:41:27;;;;;;;13.20;6.35;;;;;;;8.68;100.00;96542.25;6275229;22;20503;-80
2022/11/16 05:43:54;;;;;;;9.88;5.88;;;;;;;8.73;100.00;96538.91;6274701;22;20452;-81
2022/11/16 05:46:20;;;;;;;10.93;6.10;;;;;;;8.76;100.00;96527.16;6275329;22;20312;-83
2022/11/16 05:48:45;;;;;;;14.35;6.15;;;;;;;8.64;100.00;96527.31;6274675;22;20035;-82
2022/11/16 05:51:11;;;;;;;14.18;6.03;;;;;;;8.69;100.00;96529.97;6275282;22;20030;-81
2022/11/16 05:53:37;;;;;;;11.95;5.63;;;;;;;8.61;100.00;96525.19;6275227;22;20090;-82
2022/11/16 05:56:03;;;;;;;16.85;5.22;;;;;;;8.59;100.00;96527.25;6247446;22;20007;-82
2022/11/16 05:58:28;;;;;;;11.77;5.80;;;;;;;8.56;100.00;96528.50;6274870;22;20015;-82
2022/11/16 06:00:54;;;;;;;12.13;5.63;;;;;;;8.51;100.00;96526.63;6275332;22;20016;-82
2022/11/16 06:03:19;;;;;;;14.63;5.72;;;;;;;8.49;100.00;96538.34;6274520;22;20034;-83
2022/11/16 06:05:45;;;;;;;11.65;5.55;;;;;;;8.55;100.00;96526.94;6275260;22;20008;-82
2022/11/16 06:08:10;;;;;;;13.57;5.63;;;;;;;8.64;100.00;96530.69;6275221;22;20334;-82
2022/11/16 06:10:38;;;;;;;10.68;4.82;;;;;;;8.61;100.00;96530.41;6274942;22;20406;-82
2022/11/16 06:13:04;;;;;;;14.73;5.82;;;;;;;8.43;100.00;96529.63;6275014;22;20427;-82
2022/11/16 06:15:29;;;;;;;15.88;5.00;;;;;;;8.59;100.00;96533.25;6274247;22;20099;-82
2022/11/16 06:17:55;;;;;;;10.15;4.55;;;;;;;8.57;100.00;96524.88;6274467;22;20095;-82
2022/11/16 06:20:20;;;;;;;13.77;5.32;;;;;;;8.60;100.00;96532.22;6275100;22;20014;-82
2022/11/16 06:22:46;;;;;;;15.80;5.40;;;;;;;8.46;100.00;96533.59;6274314;22;20117;-82
2022/11/16 06:25:12;;;;;;;11.48;4.60;;;;;;;8.53;100.00;96536.84;6274914;22;20936;-82
2022/11/16 06:27:39;;;;;;;10.55;4.53;;;;;;;8.66;100.00;96539.09;6247367;22;20038;-82
2022/11/16 06:30:09;;;;;;;12.38;4.80;;;;;;;8.73;100.00;96543.34;6247386;22;20350;-82
2022/11/16 06:32:34;;;;;;;16.40;5.10;;;;;;;8.65;100.00;96540.16;6274834;22;20433;-83
2022/11/16 06:35:00;;;;;;;12.18;5.03;;;;;;;8.68;100.00;96541.47;6274428;22;20012;-82
2022/11/16 06:37:26;;;;;;;19.67;5.88;;;;;;;8.62;100.00;96538.00;6222712;22;20069;-82
2022/11/16 06:39:52;;;;;;;11.20;6.00;;;;;;;8.68;100.00;96538.84;6247905;22;20016;-83
2022/11/16 06:42:17;;;;;;;18.13;7.03;;;;;;;8.60;100.00;96547.13;6274862;22;20011;-83
2022/11/16 06:44:43;;;;;;;15.07;6.72;;;;;;;8.54;100.00;96546.28;6250228;22;20023;-82
2022/11/16 06:47:08;;;;;;;17.85;6.10;;;;;;;8.63;100.00;96554.50;6222337;22;20050;-81
2022/11/16 06:49:34;;;;;;;10.27;6.10;;;;;;;8.57;100.00;96553.63;6249561;22;20008;-82
2022/11/16 06:51:59;;;;;;;22.85;7.15;;;;;;;8.69;100.00;96559.53;6274963;22;20016;-82
2022/11/16 06:54:25;;;;;;;11.50;6.85;;;;;;;8.71;100.00;96565.31;6274472;22;20008;-82
2022/11/16 06:56:50;;;;;;;16.17;6.60;;;;;;;8.55;100.00;96553.06;6274791;22;20430;-82
2022/11/16 06:59:16;;;;;;;15.93;6.40;;;;;;;8.63;100.00;96557.88;6247466;22;20095;-81
2022/11/16 07:01:42;;;;;;;11.57;5.40;;;;;;;8.68;100.00;96551.91;6274664;22;20795;-82
2022/11/16 07:04:11;;;;;;;62.88;12.30;;;;;;;8.73;100.00;96562.44;6247075;22;20156;-81
2022/11/16 07:06:39;;;;;;;15.05;6.25;;;;;;;8.55;100.00;96553.06;6247593;22;20016;-82
2022/11/16 07:09:05;;;;;;;22.77;6.50;;;;;;;8.66;100.00;96554.81;6274512;22;20019;-82
2022/11/16 07:11:31;;;;;;;20.13;6.70;;;;;;;8.68;100.00;96552.72;6247748;22;20061;-81
2022/11/16 07:13:57;;;;;;;15.68;6.10;;;;;;;8.76;100.00;96558.56;6273945;22;20440;-82
2022/11/16 07:16:23;;;;;;;13.68;5.55;;;;;;;8.73;100.00;96567.66;6275938;22;20012;-82
2022/11/16 07:18:48;;;;;;;16.00;5.40;;;;;;;8.73;100.00;96565.06;6276877;22;20007;-83
2022/11/16 07:21:15;;;;;;;12.88;4.93;;;;;;;8.61;100.00;96578.25;6249466;22;20012;-83
2022/11/16 07:23:42;;;;;;;15.05;5.88;;;;;;;8.64;100.00;96562.06;6276188;22;20039;-83
2022/11/16 07:26:09;;;;;;;13.00;5.13;;;;;;;8.68;100.00;96560.56;6248593;22;20007;-82
2022/11/16 07:28:35;;;;;;;13.40;5.68;;;;;;;8.67;100.00;96564.22;6247427;22;20046;-82
2022/11/16 07:31:08;;;;;;;10.57;5.18;;;;;;;8.68;100.00;96557.97;6276630;22;20308;-82
2022/11/16 07:33:35;;;;;;;15.02;5.65;;;;;;;8.64;100.00;96559.44;6247862;22;20039;-83
2022/11/16 07:36:07;;;;;;;9.13;4.53;;;;;;;8.64;100.00;96566.53;6276207;22;20004;-83
2022/11/16 07:38:33;;;;;;;10.27;6.43;;;;;;;8.67;100.00;96563.41;6249057;22;20035;-83
2022/11/16 07:41:10;;;;;;;14.32;7.22;;;;;;;8.80;100.00;96577.94;6275878;22;20337;-82
2022/11/16 07:43:35;;;;;;;11.68;6.47;;;;;;;8.81;100.00;96579.53;6248981;22;20426;-82
2022/11/16 07:46:18;;;;;;;14.20;6.15;;;;;;;8.87;100.00;96583.81;6275509;22;20012;-82
2022/11/16 07:48:44;;;;;;;14.30;6.28;;;;;;;8.89;100.00;96584.34;6249133;22;20015;-83
2022/11/16 07:51:12;;;;;;;16.52;7.07;;;;;;;8.86;100.00;96582.22;6275674;22;20011;-83
2022/11/16 07:53:38;;;;;;;17.27;6.85;;;;;;;8.95;100.00;96590.44;6275877;22;20019;-83
2022/11/16 07:56:05;;;;;;;15.73;7.28;;;;;;;9.05;100.00;96595.00;6275686;22;20079;-83
2022/11/16 07:58:32;;;;;;;15.85;7.53;;;;;;;9.08;100.00;96587.44;6276066;22;20034;-82
2022/11/16 08:01:17;;;;;;;16.27;6.78;;;;;;;8.95;100.00;96591.22;6275734;22;20386;-80
2022/11/16 08:03:44;;;;;;;11.68;6.35;;;;;;;9.01;100.00;96592.06;6276280;22;20418;-81
2022/11/16 08:06:16;;;;;;;17.05;7.10;;;;;;;8.99;100.00;96596.75;6275876;22;20069;-82
2022/11/16 08:08:42;;;;;;;17.38;7.35;;;;;;;9.04;100.00;96590.78;6278489;22;20439;-82
2022/11/16 08:11:10;;;;;;;12.98;6.72;;;;;;;8.94;100.00;96588.84;6248934;22;20057;-82
2022/11/16 08:13:37;;;;;;;14.52;7.63;;;;;;;9.05;100.00;96587.16;6275075;22;20047;-81
2022/11/16 08:16:06;;;;;;;13.38;7.00;;;;;;;8.97;100.00;96581.28;6248694;22;20050;-81
2022/11/16 08:18:32;;;;;;;8.45;4.88;;;;;;;8.94;100.00;96588.84;6275110;22;20016;-81
2022/11/16 08:20:59;;;;;;;9.18;5.18;;;;;;;8.98;100.00;96593.34;6277051;22;20008;-82
2022/11/16 08:23:25;;;;;;;15.65;6.05;;;;;;;9.10;100.00;96584.56;6247560;22;20020;-81
2022/11/16 08:25:51;;;;;;;15.13;6.07;;;;;;;9.13;100.00;96578.84;6275974;22;20430;-82
2022/11/16 08:28:16;;;;;;;12.27;5.80;;;;;;;9.18;100.00;96575.50;6275373;22;20007;-81
2022/11/16 08:30:43;;;;;;;14.73;5.85;;;;;;;9.30;100.00;96581.38;6249830;22;20480;-81
2022/11/16 08:33:08;;;;;;;16.90;6.40;;;;;;;9.22;100.00;96576.59;6275747;22;20007;-81
2022/11/16 08:35:35;;;;;;;24.55;7.25;;;;;;;9.21;100.00;96569.78;6276076;22;20434;-82
2022/11/16 08:38:01;;;;;;;15.50;6.68;;;;;;;9.22;100.00;96577.34;6248396;22;20382;-79
2022/11/16 08:40:27;;;;;;;11.57;6.25;;;;;;;9.06;100.00;96579.03;6275731;22;20012;-80
2022/11/16 08:42:56;;;;;;;15.23;5.75;;;;;;;9.26;100.00;96582.91;6275683;22;20019;-80
2022/11/16 08:45:23;;;;;;;15.73;5.68;;;;;;;9.38;100.00;96594.03;6248388;22;20016;-82
2022/11/16 08:47:48;;;;;;;13.90;6.28;;;;;;;9.51;100.00;96589.41;6276110;22;20035;-79
2022/11/16 08:50:15;;;;;;;12.30;5.60;;;;;;;9.53;100.00;96585.53;6249240;22;20057;-82
2022/11/16 08:52:41;;;;;;;12.68;5.75;;;;;;;9.38;100.00;96585.38;6275828;22;20011;-81
2022/11/16 08:55:07;;;;;;;14.35;6.40;;;;;;;9.54;100.00;96589.72;6275721;22;20042;-81
2022/11/16 08:57:33;;;;;;;13.77;5.40;;;;;;;9.41;100.00;96577.03;6274066;22;20086;-80
2022/11/16 08:59:59;;;;;;;15.13;6.38;;;;;;;9.60;100.00;96585.31;6274151;22;20035;-81
2022/11/16 09:02:27;;;;;;;11.57;5.45;;;;;;;9.81;100.00;96578.41;6275568;22;20012;-81
2022/11/16 09:04:53;;;;;;;14.68;5.97;;;;;;;9.98;100.00;96583.53;6273968;22;20507;-82
2022/11/16 09:07:19;;;;;;;14.00;5.68;;;;;;;10.21;100.00;96584.19;6221777;22;20035;-80
2022/11/16 09:09:45;;;;;;;15.77;5.95;;;;;;;10.40;100.00;96570.69;6275185;22;20030;-80
2022/11/16 09:12:10;;;;;;;11.13;5.20;;;;;;;10.53;100.00;96577.31;6275211;22;20007;-81
2022/11/16 09:14:39;;;;;;;14.77;5.70;;;;;;;10.42;100.00;96569.41;6248194;22;20539;-80
2022/11/16 09:17:04;;;;;;;12.18;4.85;;;;;;;10.64;100.00;96570.28;6275302;22;20003;-80
2022/11/16 09:19:30;;;;;;;9.70;4.75;;;;;;;10.51;100.00;96574.16;6274931;22;20018;-81
2022/11/16 09:21:56;;;;;;;7.93;4.78;;;;;;;10.47;100.00;96579.13;6274274;22;20320;-80
2022/11/16 09:24:21;;;;;;;9.50;5.05;;;;;;;10.36;100.00;96567.00;6274659;22;20436;-82
2022/11/16 09:26:47;;;;;;;13.25;4.93;;;;;;;10.36;100.00;96572.22;6248099;22;20073;-81
2022/11/16 09:29:14;;;;;;;9.00;4.70;;;;;;;10.43;100.00;96578.06;6275124;22;20016;-81
2022/11/16 09:31:40;;;;;;;12.23;4.82;;;;;;;10.52;100.00;96583.63;6275485;22;20016;-84
2022/11/16 09:34:06;;;;;;;10.07;5.65;;;;;;;10.51;100.00;96584.66;6248643;22;20011;-82
2022/11/16 09:36:33;;;;;;;13.73;7.30;;;;;;;10.52;100.00;96581.78;6275155;22;20291;-83
2022/11/16 09:38:59;;;;;;;10.88;6.85;;;;;;;10.58;100.00;96585.22;6274714;22;20015;-81
2022/11/16 09:41:56;;;;;;;19.00;7.25;;;;;;;10.56;100.00;96587.31;6248162;22;20211;-81
2022/11/16 09:44:36;;;;;;;13.82;6.95;;;;;;;10.60;100.00;96588.38;6248172;22;20012;-81
2022/11/16 09:47:07;;;;;;;17.33;8.48;;;;;;;10.52;100.00;96576.56;6247265;22;20011;-82
2022/11/16 09:49:44;;;;;;;15.57;7.10;;;;;;;10.61;100.00;96574.22;6247362;22;20043;-83
2022/11/16 09:52:24;;;;;;;17.92;6.80;;;;;;;10.55;100.00;96581.28;6272714;22;20014;-82
2022/11/16 09:54:52;;;;;;;11.10;6.15;;;;;;;10.55;100.00;96577.84;6274578;22;20058;-81
2022/11/16 09:57:23;;;;;;;15.05;7.07;;;;;;;10.46;100.00;96577.56;6246992;22;20369;-81
2022/11/16 09:59:57;;;;;;;17.23;7.60;;;;;;;10.53;100.00;96583.38;6275123;22;20081;-83
2022/11/16 10:02:47;;;;;;;18.88;9.07;;;;;;;10.45;100.00;96581.22;6272659;22;20012;-82
2022/11/16 10:05:23;;;;;;;17.17;9.30;;;;;;;10.31;100.00;96578.22;6274451;22;20099;-83
2022/11/16 10:08:01;;;;;;;16.55;9.57;;;;;;;10.36;100.00;96578.25;6274258;22;20011;-82
2022/11/16 10:10:43;;;;;;;20.63;10.43;;;;;;;10.59;100.00;96583.41;6273902;22;20086;-82
2022/11/16 10:13:25;;;;;;;22.10;10.20;;;;;;;10.70;100.00;96577.94;6273568;22;20074;-82
2022/11/16 10:16:14;;;;;;;19.92;10.02;;;;;;;10.86;100.00;96565.66;6274529;22;20004;-81
2022/11/16 10:19:07;;;;;;;18.02;10.13;;;;;;;10.84;100.00;96572.22;6273569;22;20007;-82
2022/11/16 10:21:54;;;;;;;20.65;10.10;;;;;;;10.82;100.00;96575.09;6204909;22;20015;-82
2022/11/16 10:24:41;;;;;;;18.65;10.45;;;;;;;10.60;100.00;96577.09;6273678;22;20018;-82
2022/11/16 10:27:28;;;;;;;18.55;10.52;;;;;;;10.58;100.00;96577.34;6274259;22;20462;-82
2022/11/16 10:30:17;;;;;;;17.75;10.70;;;;;;;10.31;100.00;96580.84;6274961;22;20437;-82
2022/11/16 10:33:02;;;;;;;17.27;10.80;;;;;;;10.41;100.00;96580.94;6274147;22;20007;-82
2022/11/16 10:35:34;;;;;;;20.73;10.75;;;;;;;10.39;100.00;96576.97;6271569;22;20018;-81
2022/11/16 10:38:02;;;;;;;15.80;9.88;;;;;;;10.36;100.00;96572.22;6221703;22;20061;-81
2022/11/16 10:40:35;;;;;;;18.00;9.55;;;;;;;10.56;100.00;96576.81;6274596;22;20012;-80
2022/11/16 10:43:13;;;;;;;18.63;11.13;;;;;;;10.63;100.00;96582.63;6274348;22;20008;-80
2022/11/16 10:45:44;;;;;;;17.65;11.00;;;;;;;10.63;100.00;96572.16;6245803;22;20015;-80
2022/11/16 10:48:35;;;;;;;21.73;12.00;;;;;;;10.64;100.00;96572.91;6247399;22;20012;-81
2022/11/16 10:51:03;;;;;;;18.08;10.80;;;;;;;10.73;100.00;96570.59;6221570;22;20009;-80
2022/11/16 10:53:38;;;;;;;21.75;10.35;;;;;;;10.61;100.00;96563.75;6273683;22;20489;-81
2022/11/16 10:56:10;;;;;;;19.40;10.60;;;;;;;10.74;100.00;96574.78;6274326;22;20003;-80
2022/11/16 10:58:55;;;;;;;31.20;10.45;;;;;;;10.73;100.00;96574.03;6247076;22;20103;-79
2022/11/16 11:01:40;;;;;;;20.67;9.32;;;;;;;10.68;100.00;96574.78;6274664;22;20033;-79
2022/11/16 11:04:25;;;;;;;15.93;9.20;;;;;;;10.79;100.00;96570.38;6274391;22;20015;-79
2022/11/16 11:07:15;;;;;;;14.70;8.70;;;;;;;10.86;100.00;96560.41;6272567;22;20016;-79
2022/11/16 11:09:42;;;;;;;14.80;9.50;;;;;;;10.96;100.00;96557.03;6257116;22;20020;-78
2022/11/16 11:15:24;;;;;;;13.73;9.23;;;;;;;11.31;100.00;96554.75;6271376;22;20086;-81
2022/11/16 11:18:09;;;;;;;18.23;10.35;;;;;;;11.37;100.00;96558.16;6221448;22;20012;-81
2022/11/16 11:20:35;;;;;;;20.77;10.85;;;;;;;11.49;100.00;96544.78;6273481;22;20016;-81
2022/11/16 11:23:11;;;;;;;17.08;11.13;;;;;;;11.47;100.00;96550.31;6274049;22;20012;-82
2022/11/16 11:25:47;;;;;;;15.80;9.57;;;;;;;11.60;100.00;96550.84;6246409;22;20465;-82
2022/11/16 11:28:27;;;;;;;13.50;10.20;;;;;;;11.53;100.00;96549.25;6274124;22;20035;-81
2022/11/16 11:30:56;;;;;;;16.25;10.10;;;;;;;11.49;100.00;96542.16;6247155;22;20055;-82
2022/11/16 11:33:24;;;;;;;16.77;8.98;;;;;;;11.47;100.00;96542.41;6274228;22;20385;-81
2022/11/16 11:36:01;;;;;;;13.90;8.82;;;;;;;11.35;100.00;96532.19;6270661;22;20004;-82
2022/11/16 11:38:26;;;;;;;22.42;10.35;;;;;;;11.46;100.00;96524.28;6273140;22;20016;-81
2022/11/16 11:40:58;;;;;;;18.05;9.90;;;;;;;11.61;100.00;96536.66;6272459;22;20015;-82
2022/11/16 11:43:24;;;;;;;16.23;10.13;;;;;;;11.42;100.00;96529.28;6274418;22;20090;-82
2022/11/16 11:46:09;;;;;;;16.38;9.57;;;;;;;11.44;100.00;96540.31;6273905;22;20016;-83
2022/11/16 11:48:47;;;;;;;19.50;11.02;;;;;;;11.25;100.00;96543.44;6273714;22;20008;-82
2022/11/16 11:51:37;;;;;;;20.85;10.80;;;;;;;11.20;100.00;96548.69;6272744;22;20054;-82
2022/11/16 11:54:04;;;;;;;15.63;9.93;;;;;;;11.18;100.00;96550.78;6273055;22;20019;-81
2022/11/16 11:56:32;;;;;;;14.77;10.07;;;;;;;11.17;100.00;96556.31;6273079;22;20467;-82
2022/11/16 11:58:59;;;;;;;18.73;11.40;;;;;;;10.94;100.00;96560.97;6274026;22;20017;-81
2022/11/16 12:01:47;;;;;;;18.00;10.20;;;;;;;11.05;100.00;96561.78;6273111;22;20379;-81
2022/11/16 12:05:00;;;;;;;16.58;9.70;;;;;;;10.99;100.00;96553.88;6249233;22;20014;-80
2022/11/16 12:07:47;;;;;;;16.97;10.57;;;;;;;10.80;100.00;96548.31;6234882;22;20032;-80
2022/11/16 12:10:25;;;;;;;20.20;11.73;;;;;;;10.47;100.00;96545.03;6275138;22;20536;-83
2022/11/16 12:13:15;;;;;;;16.75;11.30;;;;;;;10.44;100.00;96550.78;6276003;22;20033;-80
2022/11/16 12:15:58;;;;;;;22.63;11.13;;;;;;;10.51;100.00;96543.47;6275722;22;20499;-80
2022/11/16 12:18:41;;;;;;;17.13;11.00;;;;;;;10.38;100.00;96549.94;6275722;22;20052;-81
2022/11/16 12:21:12;;;;;;;17.75;11.27;;;;;;;10.26;100.00;96542.28;6276167;22;20011;-81
2022/11/16 12:24:05;;;;;;;17.58;12.27;;;;;;;10.30;100.00;96537.31;6249079;22;20024;-80
2022/11/16 12:26:41;;;;;;;18.95;12.57;;;;;;;10.42;100.00;96531.91;6276323;22;20091;-79